• Join FlightAware (Why Join?)
  • Login
  • US Flag 
04:41PM EDT


 

Airport Tracker/Info


-or-


 

Live Flight TrackerFlight Track Log ✈ SWA394 ✈ 27-Feb-2014 ✈ KBBG - KDAL

Flight Track Log - Related Links

Times and Time Zones

All times are in EST time to prevent confusion due to time zone crossing. See the SWA394 flight status page for this flight to view local times or setup timezone preferences in your user account.

Time Position Orientation Groundspeed Altitude Reporting Facility
EST Latitude Longitude Course Direction KTS MPH feet Rate Location/Type
06:45PM 36.4181 -93.1989 182° South 203 234 5,700  Level Memphis Center
06:46PM 36.3447 -93.2092 186° South 267 307 8,400 2,760 Climbing Memphis Center
06:47PM 36.2656 -93.2742 214° Southwest 297 342 11,500 3,180 Climbing Memphis Center
06:48PM 36.1972 -93.3528 223° Southwest 325 374 15,000 3,180 Climbing Memphis Center
06:49PM 36.1281 -93.4328 223° Southwest 333 383 18,200 2,880 Climbing Memphis Center
06:50PM 36.0542 -93.5178 223° Southwest 348 400 21,100 2,700 Climbing Memphis Center
06:51PM 35.9744 -93.6044 221° Southwest 369 425 23,800 2,640 Climbing Memphis Center
06:52PM 35.8722 -93.7097 220° Southwest 392 451 26,600 2,280 Climbing Memphis Center
06:53PM 35.7864 -93.7997 220° Southwest 400 460 28,600 2,220 Climbing Memphis Center
06:54PM 35.6986 -93.8925 221° Southwest 411 473 31,200 2,340 Climbing Memphis Center
06:55PM 35.6131 -93.9811 220° Southwest 411 473 33,500 1,320 Climbing Memphis Center
06:56PM 35.5297 -94.0667 220° Southwest 402 463 34,000 240 Climbing Memphis Center
06:57PM 35.4283 -94.1717 220° Southwest 401 461 34,000  Level Memphis Center
06:58PM 35.3525 -94.2506 220° Southwest 401 461 34,000  Level Memphis Center
06:59PM 35.2583 -94.3483 220° Southwest 401 461 34,000  Level Memphis Center
07:00PM 35.1719 -94.4361 220° Southwest 401 461 34,000  Level Memphis Center
07:01PM 35.0864 -94.5242 220° Southwest 402 463 34,000  Level Memphis Center
07:02PM 34.9825 -94.6306 220° Southwest 403 464 34,000  Level Memphis Center
07:03PM 34.9006 -94.7128 219° Southwest 404 465 34,000  Level Memphis Center
07:04PM 34.8058 -94.8092 220° Southwest 410 472 34,000  Level Memphis Center
07:05PM 34.7178 -94.8969 219° Southwest 410 472 34,000  Level Memphis Center
07:06PM 34.6339 -94.9817 220° Southwest 411 473 34,000 -780 Level Memphis Center
07:08PM 34.5075 -95.1092 220° Southwest 411 473 32,200 -1,680 Descending Fort Worth Center
07:09PM 34.4242 -95.1942 220° Southwest 399 459 30,200 -2,040 Descending Fort Worth Center
07:10PM 34.3325 -95.2833 219° Southwest 389 448 28,000 -1,980 Descending Fort Worth Center
07:11PM 34.2631 -95.3542 220° Southwest 374 430 26,200 -1,800 Descending Fort Worth Center
07:12PM 34.1853 -95.4317 220° Southwest 367 422 24,300 -1,080 Descending Fort Worth Center
07:13PM 34.0942 -95.5217 219° Southwest 357 411 24,000 -420 Descending Fort Worth Center
07:14PM 34.0311 -95.5850 220° Southwest 350 403 23,500 -840 Descending Fort Worth Center
07:15PM 33.9394 -95.6744 219° Southwest 353 406 22,300 -1,080 Descending Fort Worth Center
07:16PM 33.8647 -95.7481 219° Southwest 351 404 21,300 -960 Descending Fort Worth Center
07:17PM 33.7906 -95.8214 219° Southwest 349 402 20,400 -960 Descending Fort Worth Center
07:18PM 33.7178 -95.8919 219° Southwest 342 394 19,400 -1,320 Descending Fort Worth Center
07:19PM 33.6381 -95.9694 219° Southwest 331 381 17,700 -1,800 Descending Fort Worth Center
07:20PM 33.5644 -96.0411 219° Southwest 322 371 15,800 -1,740 Descending Fort Worth Center
07:21PM 33.4978 -96.1064 219° Southwest 314 361 14,200 -1,680 Descending Fort Worth Center
07:22PM 33.4267 -96.1728 218° Southwest 305 351 12,400 -1,560 Descending Fort Worth Center
07:23PM 33.3644 -96.2350 220° Southwest 295 339 11,000 -1,260 Descending Fort Worth Center
07:24PM 33.2997 -96.2978 219° Southwest 275 316 9,800 -1,200 Descending Fort Worth Center
07:25PM 33.2464 -96.3536 221° Southwest 259 298 8,600 -1,440 Descending Fort Worth Center
07:26PM 33.2167 -96.4167 241° Southwest 256 295 7,100 -1,620 Descending Dallas / Fort Worth TRACON
07:27PM 33.1667 -96.4833 228° Southwest 254 292 5,600 -1,440 Descending Dallas / Fort Worth TRACON
07:28PM 33.1333 -96.5667 244° Southwest 246 283 4,200 -780 Descending Dallas / Fort Worth TRACON
07:29PM 33.0833 -96.6167 220° Southwest 248 285 4,000 -120 Descending Dallas / Fort Worth TRACON
07:30PM 33.0500 -96.6833 239° Southwest 246 283 4,000 -120 Level Dallas / Fort Worth TRACON
07:31PM 33.0000 -96.7500 228° Southwest 247 284 3,800 -480 Descending Dallas / Fort Worth TRACON
07:32PM 32.9667 -96.8167 239° Southwest 249 287 3,000 -600 Descending Dallas / Fort Worth TRACON
07:33PM 32.9333 -96.8833 239° Southwest 185 213 2,600 -660 Descending Dallas / Fort Worth TRACON
07:34PM 32.8833 -96.9000 196° South 147 169 1,700 -900 Descending Dallas / Fort Worth TRACON
07:35PM 32.8667 -96.8667 121° Southeast 124 143 800 -900 Descending Dallas / Fort Worth TRACON
07:38PM 32.8471 -96.8518 228° Southwest  Level Estimated
07:45PM 32.8471 -96.8518 228° Southwest  Level Estimated